X  Close Metar Aviation Weather Data     KIAH George Bush Intercontinental Houston Airport
Temperature
84°F Temperature
75°F Dewpoint
74% Humidity



Wind
3 MPH
5 KM/H
1 M/S
3 KTS



250°
WSW
Current Conditions

Mostly Cloudy Mostly Cloudy
Pressure 1011.52 (hPa) - 29.87 (inHg)
Visibility 10 (mile) - 16.1 (km)
Airport
Airport-code KIAH

Location: George Bush Intercontinental Houston Airport
Distance: 14 (mi)

Metar:
KIAH 130253Z 25003KT 10SM BKN250 29/24 A2987 RMK AO2 SLP114 T02940239 53003

Time: 07-12-2020 21:53 CDT